Time;durP1;ratioP1;P1;durP2;ratioP2;P2;SDS_P1;SDS_P2;PMS_P1;PMS_P2;Temp;Humidity;BMP_temperature;BMP_pressure;BME280_temperature;BME280_humidity;BME280_pressure;Samples;Min_cycle;Max_cycle;Signal;HPM_P1;HPM_P2
2023/09/19 00:02:12;;;;;;;;;;;;;;;23.69;53.01;98927.84;5066680;28;19912;-64
2023/09/19 00:04:39;;;;;;;;;;;;;;;23.77;52.95;98925.13;5037920;28;19924;-64
2023/09/19 00:07:05;;;;;;;;;;;;;;;23.77;52.98;98914.19;5055445;28;20435;-64
2023/09/19 00:09:30;;;;;;;;;;;;;;;23.81;52.93;98906.16;5055707;28;19943;-64
2023/09/19 00:11:57;;;;;;;;;;;;;;;23.87;52.51;98898.56;5075476;28;19920;-64
2023/09/19 00:14:24;;;;;;;;;;;;;;;23.90;52.41;98898.75;5075269;28;19981;-64
2023/09/19 00:16:50;;;;;;;;;;;;;;;23.86;52.27;98903.22;5090067;28;19924;-63
2023/09/19 00:19:16;;;;;;;;;;;;;;;23.84;52.59;98899.22;5095397;28;20360;-63
2023/09/19 00:21:41;;;;;;;;;;;;;;;23.79;52.65;98889.19;5095491;28;19973;-63
2023/09/19 00:24:08;;;;;;;;;;;;;;;23.88;52.38;98886.47;5095517;28;19989;-63
2023/09/19 00:26:34;;;;;;;;;;;;;;;23.89;52.51;98882.63;5094455;28;19919;-63
2023/09/19 00:29:04;;;;;;;;;;;;;;;23.90;52.16;98881.47;5084091;28;19912;-63
2023/09/19 00:31:30;;;;;;;;;;;;;;;23.85;52.69;98878.91;5074992;28;19954;-63
2023/09/19 00:33:56;;;;;;;;;;;;;;;23.82;52.69;98876.78;5074839;28;19997;-63
2023/09/19 00:36:23;;;;;;;;;;;;;;;23.84;52.58;98877.28;5074724;28;19912;-63
2023/09/19 00:38:48;;;;;;;;;;;;;;;23.84;52.21;98882.75;5074934;28;19917;-63
2023/09/19 00:41:14;;;;;;;;;;;;;;;23.70;53.19;98883.69;5075199;28;19919;-63
2023/09/19 00:43:40;;;;;;;;;;;;;;;23.70;52.68;98878.19;5074566;28;19912;-63
2023/09/19 00:46:06;;;;;;;;;;;;;;;23.79;52.92;98880.97;5074602;28;20057;-64
2023/09/19 00:48:35;;;;;;;;;;;;;;;23.83;52.60;98873.72;5074484;28;19916;-63
2023/09/19 00:51:04;;;;;;;;;;;;;;;23.91;52.33;98858.41;5074722;28;19919;-63
2023/09/19 00:53:30;;;;;;;;;;;;;;;23.88;52.20;98859.84;5074087;28;19968;-63
2023/09/19 00:55:56;;;;;;;;;;;;;;;23.89;52.33;98860.69;5073637;28;19962;-63
2023/09/19 00:58:21;;;;;;;;;;;;;;;23.87;52.46;98849.22;5074218;28;19912;-63
2023/09/19 01:00:48;;;;;;;;;;;;;;;23.90;51.96;98843.91;5074279;28;19920;-63
2023/09/19 01:03:13;;;;;;;;;;;;;;;23.90;52.27;98843.91;5056950;28;19920;-63
2023/09/19 01:05:38;;;;;;;;;;;;;;;23.92;52.50;98838.91;5053400;28;19912;-63
2023/09/19 01:08:04;;;;;;;;;;;;;;;23.88;51.98;98835.16;5054845;28;19921;-63
2023/09/19 01:10:29;;;;;;;;;;;;;;;23.88;52.02;98831.63;5065073;28;19913;-63
2023/09/19 01:13:07;;;;;;;;;;;;;;;23.90;52.03;98826.63;5054495;28;19919;-63
2023/09/19 01:15:39;;;;;;;;;;;;;;;23.87;51.87;98824.56;5054278;28;20011;-63
2023/09/19 01:18:05;;;;;;;;;;;;;;;23.92;52.01;98813.41;5054069;28;19920;-63
2023/09/19 01:20:39;;;;;;;;;;;;;;;23.90;51.93;98821.97;5054317;28;19913;-63
2023/09/19 01:23:13;;;;;;;;;;;;;;;23.96;51.63;98814.38;5056633;28;19913;-63
2023/09/19 01:25:51;;;;;;;;;;;;;;;23.94;51.50;98814.72;5073985;28;19922;-63
2023/09/19 01:28:28;;;;;;;;;;;;;;;23.94;51.59;98803.75;5082779;28;19912;-63
2023/09/19 01:30:58;;;;;;;;;;;;;;;23.87;51.81;98800.69;5073955;28;19919;-63
2023/09/19 01:33:24;;;;;;;;;;;;;;;23.83;51.55;98791.50;5073609;28;19921;-63
2023/09/19 01:35:50;;;;;;;;;;;;;;;23.83;51.55;98780.53;5073669;28;19917;-63
2023/09/19 01:38:15;;;;;;;;;;;;;;;23.81;51.73;98784.69;5073439;28;19912;-63
2023/09/19 01:40:48;;;;;;;;;;;;;;;23.79;51.32;98771.31;5055816;28;19916;-63
2023/09/19 01:43:30;;;;;;;;;;;;;;;23.78;51.76;98756.78;5073607;28;19966;-63
2023/09/19 01:46:12;;;;;;;;;;;;;;;23.87;51.59;98756.00;5073676;28;19912;-63
2023/09/19 01:48:56;;;;;;;;;;;;;;;23.86;51.00;98760.66;5055426;28;19942;-63
2023/09/19 01:51:33;;;;;;;;;;;;;;;23.84;51.19;98773.09;5053633;28;20316;-63
2023/09/19 01:54:02;;;;;;;;;;;;;;;23.89;51.11;98776.47;5053032;28;20303;-63
2023/09/19 01:56:35;;;;;;;;;;;;;;;23.83;52.36;98761.34;5083509;28;19916;-63
2023/09/19 01:59:04;;;;;;;;;;;;;;;23.77;52.47;98754.34;5093463;28;19912;-63
2023/09/19 02:01:29;;;;;;;;;;;;;;;23.78;52.43;98742.28;5090422;28;19924;-63
2023/09/19 02:03:56;;;;;;;;;;;;;;;23.72;52.48;98735.34;5073505;28;19932;-63
2023/09/19 02:06:21;;;;;;;;;;;;;;;23.66;53.01;98742.94;5073185;28;19999;-62
2023/09/19 02:08:47;;;;;;;;;;;;;;;23.57;53.41;98723.75;5073285;28;20007;-62
2023/09/19 02:11:13;;;;;;;;;;;;;;;23.57;53.51;98706.50;5058289;28;19912;-62
2023/09/19 02:13:38;;;;;;;;;;;;;;;23.62;53.96;98703.56;5053048;28;19917;-62
2023/09/19 02:16:04;;;;;;;;;;;;;;;23.66;53.56;98695.50;5072261;28;19969;-62
2023/09/19 02:18:30;;;;;;;;;;;;;;;23.58;53.19;98708.09;5100034;28;19951;-62
2023/09/19 02:20:56;;;;;;;;;;;;;;;23.43;53.81;98694.91;5084049;28;20316;-63
2023/09/19 02:23:21;;;;;;;;;;;;;;;23.45;54.49;98693.44;5079941;28;19917;-63
2023/09/19 02:26:00;;;;;;;;;;;;;;;23.51;54.77;98697.63;5080169;28;19931;-62
2023/09/19 02:28:30;;;;;;;;;;;;;;;23.39;54.36;98681.84;5079760;28;19913;-63
2023/09/19 02:30:56;;;;;;;;;;;;;;;23.30;54.39;98683.75;5079576;28;19912;-63
2023/09/19 02:33:21;;;;;;;;;;;;;;;23.31;55.21;98668.94;5080056;28;20422;-63
2023/09/19 02:35:46;;;;;;;;;;;;;;;23.39;54.74;98667.34;5079847;28;20394;-63
2023/09/19 02:38:12;;;;;;;;;;;;;;;23.43;54.84;98659.28;5079853;28;19919;-63
2023/09/19 02:40:37;;;;;;;;;;;;;;;23.46;55.21;98650.41;5079571;28;19970;-63
2023/09/19 02:43:03;;;;;;;;;;;;;;;23.46;54.92;98642.16;5079635;28;19912;-63
2023/09/19 02:45:29;;;;;;;;;;;;;;;23.46;54.66;98637.53;5079549;28;19971;-63
2023/09/19 02:47:55;;;;;;;;;;;;;;;23.40;54.95;98633.31;5079712;28;19912;-63
2023/09/19 02:50:20;;;;;;;;;;;;;;;23.43;54.68;98616.25;5079436;28;19919;-63
2023/09/19 02:52:48;;;;;;;;;;;;;;;23.41;53.99;98604.00;5079737;28;19919;-63
2023/09/19 02:55:17;;;;;;;;;;;;;;;23.37;54.92;98601.91;5083695;28;19965;-63
2023/09/19 02:57:46;;;;;;;;;;;;;;;23.36;54.29;98589.34;5099799;28;19912;-63
2023/09/19 03:00:12;;;;;;;;;;;;;;;23.39;54.49;98593.38;5099841;28;19916;-63
2023/09/19 03:02:39;;;;;;;;;;;;;;;23.34;53.87;98575.16;5069077;28;19916;-63
2023/09/19 03:05:05;;;;;;;;;;;;;;;23.36;54.55;98561.97;5059708;28;19958;-63
2023/09/19 03:07:30;;;;;;;;;;;;;;;23.39;54.35;98558.56;5059384;28;19944;-63
2023/09/19 03:09:56;;;;;;;;;;;;;;;23.45;54.10;98559.19;5063366;28;20321;-63
2023/09/19 03:12:21;;;;;;;;;;;;;;;23.51;54.32;98555.16;5079427;28;19912;-63
2023/09/19 03:14:46;;;;;;;;;;;;;;;23.55;54.41;98553.38;5079374;28;19999;-63
2023/09/19 03:17:14;;;;;;;;;;;;;;;23.55;54.26;98530.63;5080715;28;20316;-63
2023/09/19 03:19:39;;;;;;;;;;;;;;;23.55;54.00;98520.47;5079491;28;19916;-63
2023/09/19 03:22:04;;;;;;;;;;;;;;;23.56;53.84;98519.34;5079393;28;19912;-64
2023/09/19 03:24:31;;;;;;;;;;;;;;;23.60;53.99;98511.25;5079200;28;19922;-64
2023/09/19 03:26:57;;;;;;;;;;;;;;;23.60;53.61;98505.00;5080437;28;20424;-63
2023/09/19 03:29:22;;;;;;;;;;;;;;;23.56;53.60;98497.41;5082449;28;19913;-63
2023/09/19 03:31:47;;;;;;;;;;;;;;;23.55;53.31;98490.34;5076512;28;20384;-63
2023/09/19 03:34:12;;;;;;;;;;;;;;;23.60;53.49;98472.91;5075992;28;20369;-64
2023/09/19 03:36:38;;;;;;;;;;;;;;;23.61;53.26;98458.06;5075968;28;20393;-63
2023/09/19 03:39:04;;;;;;;;;;;;;;;23.62;53.38;98456.94;5075798;28;20003;-63
2023/09/19 03:41:30;;;;;;;;;;;;;;;23.56;53.17;98445.34;5075829;28;20346;-63
2023/09/19 03:43:56;;;;;;;;;;;;;;;23.51;52.61;98444.72;5058213;28;19999;-63
2023/09/19 03:46:21;;;;;;;;;;;;;;;23.43;53.42;98432.69;5075823;28;20361;-63
2023/09/19 03:48:46;;;;;;;;;;;;;;;23.40;53.82;98427.84;5075851;28;19956;-62
2023/09/19 03:51:12;;;;;;;;;;;;;;;23.45;53.75;98422.19;5075695;28;20387;-62
2023/09/19 03:53:37;;;;;;;;;;;;;;;23.49;53.05;98408.66;5075452;28;20369;-63
2023/09/19 03:56:02;;;;;;;;;;;;;;;23.34;53.46;98399.03;5086799;28;20277;-63
2023/09/19 03:58:27;;;;;;;;;;;;;;;23.31;53.63;98394.22;5081002;28;20421;-63
2023/09/19 04:00:56;;;;;;;;;;;;;;;23.29;53.88;98380.88;5075602;28;20011;-63
2023/09/19 04:03:21;;;;;;;;;;;;;;;23.26;53.57;98376.03;5057292;28;20362;-63
2023/09/19 04:05:49;;;;;;;;;;;;;;;23.22;53.71;98366.88;5055823;28;19986;-63
2023/09/19 04:08:15;;;;;;;;;;;;;;;23.21;53.84;98350.78;5055118;28;20365;-63
2023/09/19 04:10:43;;;;;;;;;;;;;;;23.18;53.89;98363.22;5065468;28;19965;-63
2023/09/19 04:13:09;;;;;;;;;;;;;;;23.15;53.87;98358.38;5075333;28;19912;-63
2023/09/19 04:15:34;;;;;;;;;;;;;;;23.11;53.46;98357.44;5079405;28;19977;-63
2023/09/19 04:17:59;;;;;;;;;;;;;;;23.08;53.32;98344.38;5095790;28;19912;-63
2023/09/19 04:20:25;;;;;;;;;;;;;;;23.12;53.56;98329.72;5095413;28;19957;-63
2023/09/19 04:22:50;;;;;;;;;;;;;;;23.17;53.99;98326.00;5095677;28;19912;-63
2023/09/19 04:25:15;;;;;;;;;;;;;;;23.16;53.49;98316.16;5095550;28;19919;-63
2023/09/19 04:27:41;;;;;;;;;;;;;;;23.10;53.25;98312.00;5086759;28;20356;-63
2023/09/19 04:30:10;;;;;;;;;;;;;;;23.14;53.10;98299.25;5075054;28;19958;-63
2023/09/19 04:32:36;;;;;;;;;;;;;;;23.10;52.92;98296.38;5074858;28;19918;-63
2023/09/19 04:35:05;;;;;;;;;;;;;;;23.03;52.69;98287.88;5074717;28;19917;-63
2023/09/19 04:37:30;;;;;;;;;;;;;;;23.03;52.94;98282.41;5074630;28;19962;-63
2023/09/19 04:39:55;;;;;;;;;;;;;;;23.07;52.67;98279.81;5073461;28;19916;-63
2023/09/19 04:42:25;;;;;;;;;;;;;;;22.99;52.67;98257.59;5074584;28;19916;-64
2023/09/19 04:44:52;;;;;;;;;;;;;;;22.97;52.91;98259.06;5075019;28;20057;-64
2023/09/19 04:47:17;;;;;;;;;;;;;;;22.94;52.97;98243.31;5074534;28;19917;-63
2023/09/19 04:49:43;;;;;;;;;;;;;;;22.86;52.41;98244.13;5074399;28;20054;-63
2023/09/19 04:52:08;;;;;;;;;;;;;;;22.92;52.76;98238.16;5074252;28;19959;-64
2023/09/19 04:54:36;;;;;;;;;;;;;;;22.96;52.43;98244.56;5060496;28;19955;-64
2023/09/19 04:57:01;;;;;;;;;;;;;;;23.04;53.05;98223.78;5093652;28;19912;-64
2023/09/19 04:59:28;;;;;;;;;;;;;;;22.91;53.51;98220.13;5094637;28;19942;-64
2023/09/19 05:01:53;;;;;;;;;;;;;;;22.83;53.50;98217.44;5088074;28;20432;-63
2023/09/19 05:04:18;;;;;;;;;;;;;;;22.82;53.52;98200.22;5074070;28;20008;-63
2023/09/19 05:06:44;;;;;;;;;;;;;;;22.81;53.81;98185.72;5074198;28;20266;-63
2023/09/19 05:09:09;;;;;;;;;;;;;;;22.68;54.02;98191.41;5073907;28;19943;-63
2023/09/19 05:11:36;;;;;;;;;;;;;;;22.68;54.63;98192.25;5056344;28;20001;-63
2023/09/19 05:14:03;;;;;;;;;;;;;;;22.62;54.28;98196.28;5053961;28;19917;-63
2023/09/19 05:16:31;;;;;;;;;;;;;;;22.55;54.67;98171.41;5077211;28;19912;-63
2023/09/19 05:18:56;;;;;;;;;;;;;;;22.51;54.77;98148.53;5076414;28;19919;-63
2023/09/19 05:21:22;;;;;;;;;;;;;;;22.42;54.77;98156.81;5094541;28;19963;-63
2023/09/19 05:23:47;;;;;;;;;;;;;;;22.41;55.30;98145.03;5093917;28;19916;-63
2023/09/19 05:26:12;;;;;;;;;;;;;;;22.42;55.48;98162.28;5094218;28;19912;-63
2023/09/19 05:28:38;;;;;;;;;;;;;;;22.33;55.52;98186.13;5077559;28;19912;-63
2023/09/19 05:31:03;;;;;;;;;;;;;;;22.40;54.92;98181.75;5073565;28;19912;-63
2023/09/19 05:33:30;;;;;;;;;;;;;;;22.51;55.04;98173.16;5073830;28;19916;-63
2023/09/19 05:35:56;;;;;;;;;;;;;;;22.57;54.59;98166.41;5073646;28;20337;-63
2023/09/19 05:38:22;;;;;;;;;;;;;;;22.49;54.20;98162.56;5073752;28;19999;-63
2023/09/19 05:40:47;;;;;;;;;;;;;;;22.72;54.57;98162.28;5055555;28;19916;-63
2023/09/19 05:43:14;;;;;;;;;;;;;;;22.71;53.53;98166.94;5073768;28;19958;-63
2023/09/19 05:45:42;;;;;;;;;;;;;;;22.76;53.74;98161.28;5073862;28;19916;-63
2023/09/19 05:48:13;;;;;;;;;;;;;;;22.72;53.98;98154.09;5073657;28;19958;-63
2023/09/19 05:50:38;;;;;;;;;;;;;;;22.76;53.50;98152.28;5072898;28;19920;-63
2023/09/19 05:53:04;;;;;;;;;;;;;;;22.81;53.74;98135.69;5073557;28;19965;-63
2023/09/19 05:55:30;;;;;;;;;;;;;;;22.82;53.16;98134.53;5072605;28;19923;-63
2023/09/19 05:57:55;;;;;;;;;;;;;;;22.72;53.60;98140.41;5073503;28;19919;-63
2023/09/19 06:00:22;;;;;;;;;;;;;;;22.73;53.45;98145.53;5073476;28;20368;-64
2023/09/19 06:02:52;;;;;;;;;;;;;;;22.77;53.05;98140.19;5073149;28;20285;-64
2023/09/19 06:05:17;;;;;;;;;;;;;;;22.77;53.03;98138.28;5073113;28;20384;-64
2023/09/19 06:07:42;;;;;;;;;;;;;;;22.82;53.69;98145.47;5072945;28;19912;-64
2023/09/19 06:10:09;;;;;;;;;;;;;;;22.84;52.97;98139.66;5067580;28;20369;-63
2023/09/19 06:12:38;;;;;;;;;;;;;;;22.80;53.06;98154.00;5053026;28;19919;-63
2023/09/19 06:15:05;;;;;;;;;;;;;;;22.90;52.76;98143.81;5053066;28;20350;-63
2023/09/19 06:17:31;;;;;;;;;;;;;;;22.82;52.21;98156.41;5052962;28;19913;-63
2023/09/19 06:19:56;;;;;;;;;;;;;;;22.74;52.22;98158.06;5053421;28;19920;-63
2023/09/19 06:22:21;;;;;;;;;;;;;;;22.67;52.88;98162.47;5053347;28;19913;-63
2023/09/19 06:24:47;;;;;;;;;;;;;;;22.72;52.40;98163.09;5052833;28;20381;-63
2023/09/19 06:27:13;;;;;;;;;;;;;;;22.60;51.84;98173.91;5061328;28;20015;-64
2023/09/19 06:29:38;;;;;;;;;;;;;;;22.47;51.66;98158.53;5077359;28;19967;-64
2023/09/19 06:32:08;;;;;;;;;;;;;;;22.50;52.24;98179.78;5073236;28;19972;-64
2023/09/19 06:34:33;;;;;;;;;;;;;;;22.59;52.36;98166.88;5072656;28;19916;-63
2023/09/19 06:36:59;;;;;;;;;;;;;;;22.59;51.78;98170.41;5073015;28;19966;-63
2023/09/19 06:39:25;;;;;;;;;;;;;;;22.63;51.80;98167.00;5073223;28;19913;-63
2023/09/19 06:41:53;;;;;;;;;;;;;;;22.64;51.97;98168.59;5067483;28;19925;-63
2023/09/19 06:44:18;;;;;;;;;;;;;;;22.64;50.97;98176.81;5045708;28;19963;-62
2023/09/19 06:46:46;;;;;;;;;;;;;;;22.60;51.48;98184.88;5062234;28;19952;-62
2023/09/19 06:49:13;;;;;;;;;;;;;;;22.63;50.92;98189.69;5058836;28;20345;-62
2023/09/19 06:51:38;;;;;;;;;;;;;;;22.57;51.06;98193.75;5072554;28;19948;-62
2023/09/19 06:54:05;;;;;;;;;;;;;;;22.48;50.81;98182.03;5071890;28;19966;-62
2023/09/19 06:56:30;;;;;;;;;;;;;;;22.58;51.06;98193.44;5087939;28;19919;-62
2023/09/19 06:58:55;;;;;;;;;;;;;;;22.56;50.03;98197.59;5093072;28;19912;-62
2023/09/19 07:01:21;;;;;;;;;;;;;;;22.58;49.83;98203.53;5081813;28;20305;-62
2023/09/19 07:03:47;;;;;;;;;;;;;;;22.29;49.39;98199.66;5063304;28;19961;-62
2023/09/19 07:06:12;;;;;;;;;;;;;;;22.13;49.51;98184.88;5076204;28;20003;-62
2023/09/19 07:08:38;;;;;;;;;;;;;;;22.22;49.73;98196.59;5076152;28;20022;-63
2023/09/19 07:11:06;;;;;;;;;;;;;;;22.32;48.83;98189.97;5062365;28;19913;-62
2023/09/19 07:13:31;;;;;;;;;;;;;;;22.47;49.65;98192.16;5056003;28;19974;-62
2023/09/19 07:15:58;;;;;;;;;;;;;;;22.50;50.45;98179.78;5069432;28;20002;-62
2023/09/19 07:18:23;;;;;;;;;;;;;;;22.44;50.43;98176.44;5078325;28;19912;-62
2023/09/19 07:20:49;;;;;;;;;;;;;;;22.43;49.92;98183.00;5096548;28;19935;-62
2023/09/19 07:23:22;;;;;;;;;;;;;;;22.24;50.45;98178.72;5078249;28;19927;-63
2023/09/19 07:25:48;;;;;;;;;;;;;;;22.30;50.06;98173.91;5096337;28;19918;-62
2023/09/19 07:28:14;;;;;;;;;;;;;;;22.31;49.26;98177.44;5090234;28;19962;-62
2023/09/19 07:30:40;;;;;;;;;;;;;;;22.32;49.91;98171.63;5058083;28;19912;-62
2023/09/19 07:33:05;;;;;;;;;;;;;;;22.50;49.70;98177.84;5076217;28;19912;-62
2023/09/19 07:35:31;;;;;;;;;;;;;;;22.50;49.55;98171.56;5075675;28;19917;-62
2023/09/19 07:37:58;;;;;;;;;;;;;;;22.46;49.43;98182.38;5075790;28;20007;-62
2023/09/19 07:40:24;;;;;;;;;;;;;;;22.40;49.74;98170.81;5075801;28;19913;-62
2023/09/19 07:42:50;;;;;;;;;;;;;;;22.54;49.73;98170.56;5075620;28;19912;-62
2023/09/19 07:45:16;;;;;;;;;;;;;;;22.59;49.16;98175.06;5075794;28;20442;-62
2023/09/19 07:47:45;;;;;;;;;;;;;;;22.57;48.34;98155.44;5075783;28;20269;-63
2023/09/19 07:50:11;;;;;;;;;;;;;;;22.54;49.17;98158.84;5075820;28;20340;-62
2023/09/19 07:52:39;;;;;;;;;;;;;;;22.41;48.83;98153.25;5075904;28;19912;-62
2023/09/19 07:55:08;;;;;;;;;;;;;;;22.35;48.71;98162.00;5078534;28;19928;-62
2023/09/19 07:57:34;;;;;;;;;;;;;;;22.39;49.30;98155.53;5087201;28;20049;-62
2023/09/19 07:59:59;;;;;;;;;;;;;;;22.43;49.92;98161.13;5075506;28;19995;-62
2023/09/19 08:02:25;;;;;;;;;;;;;;;22.77;49.81;98164.81;5064720;28;19912;-62
2023/09/19 08:04:51;;;;;;;;;;;;;;;22.83;48.71;98151.78;5055405;28;19920;-62
2023/09/19 08:07:18;;;;;;;;;;;;;;;22.61;48.34;98164.59;5055349;28;19913;-62
2023/09/19 08:09:48;;;;;;;;;;;;;;;22.68;48.33;98144.91;5057574;28;19927;-62
2023/09/19 08:12:14;;;;;;;;;;;;;;;22.87;48.97;98152.69;5075451;28;20281;-62
2023/09/19 08:14:41;;;;;;;;;;;;;;;22.95;48.42;98152.63;5074710;28;19917;-62
2023/09/19 08:17:07;;;;;;;;;;;;;;;22.77;47.97;98151.13;5092174;28;20276;-62
2023/09/19 08:19:33;;;;;;;;;;;;;;;22.32;47.61;98097.00;5095637;28;19958;-62
2023/09/19 08:21:58;;;;;;;;;;;;;;;22.65;47.41;98134.66;5095592;28;19913;-62
2023/09/19 08:24:28;;;;;;;;;;;;;;;22.74;48.01;98144.41;5080688;28;20392;-62
2023/09/19 08:26:54;;;;;;;;;;;;;;;22.82;48.50;98148.22;5076524;28;19919;-62
2023/09/19 08:29:19;;;;;;;;;;;;;;;22.83;47.68;98133.41;5082101;28;19912;-61
2023/09/19 08:31:45;;;;;;;;;;;;;;;22.81;47.57;98138.41;5074827;28;19919;-63
2023/09/19 08:34:10;;;;;;;;;;;;;;;22.82;47.32;98140.00;5074666;28;19917;-62
2023/09/19 08:36:37;;;;;;;;;;;;;;;22.98;47.34;98149.22;5075123;28;19997;-62
2023/09/19 08:39:02;;;;;;;;;;;;;;;22.93;47.13;98143.16;5066127;28;19917;-62
2023/09/19 08:41:27;;;;;;;;;;;;;;;22.95;47.40;98133.47;5054707;28;20062;-62
2023/09/19 08:43:53;;;;;;;;;;;;;;;22.81;47.32;98141.94;5054904;28;19913;-62
2023/09/19 08:46:19;;;;;;;;;;;;;;;22.89;47.45;98136.75;5054608;28;19920;-62
2023/09/19 08:48:58;;;;;;;;;;;;;;;22.92;47.02;98133.31;5055743;28;20008;-62
2023/09/19 08:51:27;;;;;;;;;;;;;;;22.95;46.94;98138.94;5074712;28;19919;-61
2023/09/19 08:54:03;;;;;;;;;;;;;;;22.84;48.06;98126.00;5062900;28;20268;-62
2023/09/19 08:56:29;;;;;;;;;;;;;;;22.78;47.29;98125.38;5089613;28;19916;-62
2023/09/19 08:58:59;;;;;;;;;;;;;;;22.89;47.30;98125.78;5094690;28;20006;-62
2023/09/19 09:01:28;;;;;;;;;;;;;;;22.88;47.87;98125.00;5092278;28;19995;-62
2023/09/19 09:03:54;;;;;;;;;;;;;;;22.82;47.22;98123.56;5074399;28;19920;-62
2023/09/19 09:06:20;;;;;;;;;;;;;;;22.68;47.20;98136.69;5074091;28;19916;-61
2023/09/19 09:08:46;;;;;;;;;;;;;;;22.38;46.00;98140.25;5074167;28;19927;-62
2023/09/19 09:11:12;;;;;;;;;;;;;;;22.59;46.24;98139.50;5059792;28;19920;-61
2023/09/19 09:13:38;;;;;;;;;;;;;;;22.73;45.49;98133.78;5054569;28;20476;-61
2023/09/19 09:16:04;;;;;;;;;;;;;;;22.69;46.25;98135.56;5070390;28;19912;-62
2023/09/19 09:18:32;;;;;;;;;;;;;;;22.92;46.08;98136.06;5094623;28;20311;-62
2023/09/19 09:20:57;;;;;;;;;;;;;;;23.10;45.57;98131.31;5077624;28;19917;-62
2023/09/19 09:23:25;;;;;;;;;;;;;;;23.16;45.51;98135.44;5074257;28;20361;-61
2023/09/19 09:25:54;;;;;;;;;;;;;;;23.15;44.98;98142.06;5073911;28;20383;-62
2023/09/19 09:28:24;;;;;;;;;;;;;;;23.13;44.45;98141.59;5082880;28;19912;-62
2023/09/19 09:30:50;;;;;;;;;;;;;;;23.24;44.94;98161.16;5074220;28;19957;-62
2023/09/19 09:33:16;;;;;;;;;;;;;;;22.77;44.48;98138.28;5074255;28;19919;-62
2023/09/19 09:35:51;;;;;;;;;;;;;;;22.90;44.53;98139.16;5062302;28;20258;-62
2023/09/19 09:38:18;;;;;;;;;;;;;;;23.14;44.76;98149.47;5054016;28;19912;-62
2023/09/19 09:41:27;;;;;;;;;;;;;;;23.13;45.48;98160.75;5053776;28;19949;-62
2023/09/19 09:43:46;;;;;;;;;;;;;;;23.22;45.68;98166.19;5050417;28;20007;-64
2023/09/19 09:48:54;;;;;;;;;;;;;;;22.85;46.77;98163.97;5054669;28;19935;-63
2023/09/19 09:51:33;;;;;;;;;;;;;;;22.94;45.79;98172.13;5073901;28;19959;-63
2023/09/19 09:54:12;;;;;;;;;;;;;;;22.85;45.27;98180.41;5053251;28;19917;-62
2023/09/19 09:56:59;;;;;;;;;;;;;;;22.86;46.89;98175.72;5086338;28;20485;-62
2023/09/19 09:59:47;;;;;;;;;;;;;;;22.72;46.30;98181.44;5053277;28;19913;-63
2023/09/19 10:02:14;;;;;;;;;;;;;;;22.70;45.64;98189.19;5053867;28;20399;-62
2023/09/19 10:04:51;;;;;;;;;;;;;;;22.51;46.78;98179.47;5073447;28;19912;-62
2023/09/19 10:07:27;;;;;;;;;;;;;;;22.56;46.68;98179.25;5073421;28;19913;-62
2023/09/19 10:09:56;;;;;;;;;;;;;;;22.44;46.03;98189.31;5069617;28;19920;-61
2023/09/19 10:12:21;;;;;;;;;;;;;;;22.67;46.24;98184.34;5053727;28;20019;-61
2023/09/19 10:14:47;;;;;;;;;;;;;;;22.82;45.50;98194.72;5053232;28;19921;-63
2023/09/19 10:17:15;;;;;;;;;;;;;;;22.89;44.83;98192.28;5071610;28;20349;-62
2023/09/19 10:19:46;;;;;;;;;;;;;;;22.87;46.57;98178.13;5058342;28;20007;-62
2023/09/19 10:22:14;;;;;;;;;;;;;;;22.95;46.07;98187.41;5073078;28;19920;-62
2023/09/19 10:24:40;;;;;;;;;;;;;;;23.18;45.55;98196.97;5073493;28;20303;-62
2023/09/19 10:27:08;;;;;;;;;;;;;;;22.99;44.21;98202.03;5076557;28;19987;-62
2023/09/19 10:29:36;;;;;;;;;;;;;;;23.09;43.91;98189.94;5078164;28;20293;-62
2023/09/19 10:32:05;;;;;;;;;;;;;;;22.69;43.65;98193.84;5060063;28;20346;-62
2023/09/19 10:34:34;;;;;;;;;;;;;;;23.00;43.68;98204.44;5053163;28;19916;-62
2023/09/19 10:37:05;;;;;;;;;;;;;;;23.11;42.11;98191.22;5054477;28;19913;-62
2023/09/19 10:39:32;;;;;;;;;;;;;;;23.10;41.98;98210.69;5056980;28;20052;-62
2023/09/19 10:42:02;;;;;;;;;;;;;;;23.16;41.30;98191.00;5057105;28;19913;-61
2023/09/19 10:44:31;;;;;;;;;;;;;;;23.14;41.48;98196.03;5039106;28;20358;-62
2023/09/19 10:46:57;;;;;;;;;;;;;;;23.22;41.18;98202.56;5070550;28;19919;-62
2023/09/19 10:49:24;;;;;;;;;;;;;;;23.52;41.19;98207.97;5077047;28;19913;-62
2023/09/19 10:51:54;;;;;;;;;;;;;;;23.64;40.82;98212.72;5076759;28;19948;-63
2023/09/19 10:54:23;;;;;;;;;;;;;;;23.90;40.48;98201.53;5076164;28;20037;-62
2023/09/19 10:56:51;;;;;;;;;;;;;;;24.20;39.54;98212.34;5095064;28;20012;-63
2023/09/19 10:59:18;;;;;;;;;;;;;;;24.51;38.02;98192.63;5096925;28;19912;-62
2023/09/19 11:01:53;;;;;;;;;;;;;;;24.34;37.97;98205.41;5091783;28;19920;-63
2023/09/19 11:04:24;;;;;;;;;;;;;;;24.26;37.73;98208.28;5076626;28;19924;-63
2023/09/19 11:07:08;;;;;;;;;;;;;;;23.90;37.85;98207.00;5076589;28;20380;-63
2023/09/19 11:09:45;;;;;;;;;;;;;;;23.64;38.40;98229.94;5075105;28;19921;-62
2023/09/19 11:12:11;;;;;;;;;;;;;;;23.63;39.82;98219.34;5044511;28;19923;-62
2023/09/19 11:14:40;;;;;;;;;;;;;;;23.30;40.14;98214.59;5076401;28;19916;-62
2023/09/19 11:17:15;;;;;;;;;;;;;;;23.42;40.32;98219.34;5093299;28;19927;-62
2023/09/19 11:19:59;;;;;;;;;;;;;;;23.32;40.07;98174.78;5096803;28;20383;-62
2023/09/19 11:22:26;;;;;;;;;;;;;;;23.63;39.06;98228.34;5096717;28;19912;-62
2023/09/19 11:24:51;;;;;;;;;;;;;;;23.71;39.46;98235.69;5096721;28;20349;-63
2023/09/19 11:27:18;;;;;;;;;;;;;;;23.65;38.73;98231.56;5086740;28;19919;-62
2023/09/19 11:29:43;;;;;;;;;;;;;;;23.69;38.69;98248.94;5072247;28;19916;-63
2023/09/19 11:32:09;;;;;;;;;;;;;;;23.92;37.45;98241.19;5058108;28;19918;-63
2023/09/19 11:34:46;;;;;;;;;;;;;;;24.25;37.49;98248.59;5041391;28;19970;-63
2023/09/19 11:37:14;;;;;;;;;;;;;;;23.90;35.48;98278.28;5058084;28;20348;-63
2023/09/19 11:39:59;;;;;;;;;;;;;;;24.05;35.42;98250.28;5076134;28;20019;-62
2023/09/19 11:42:53;;;;;;;;;;;;;;;23.91;36.58;98241.53;5058031;28;19935;-62
2023/09/19 11:45:37;;;;;;;;;;;;;;;23.85;36.60;98260.13;5075848;28;20004;-62
2023/09/19 11:48:06;;;;;;;;;;;;;;;24.40;36.13;98238.91;5075504;28;20257;-62
2023/09/19 11:50:32;;;;;;;;;;;;;;;24.87;37.24;98244.03;5076087;28;19917;-62
2023/09/19 11:52:58;;;;;;;;;;;;;;;24.99;34.61;98240.47;5075681;28;19917;-62
2023/09/19 11:55:25;;;;;;;;;;;;;;;25.16;33.98;98264.13;5081046;28;19923;-62
2023/09/19 11:57:51;;;;;;;;;;;;;;;25.06;33.30;98237.94;5096193;28;19912;-62
2023/09/19 12:00:19;;;;;;;;;;;;;;;25.14;34.08;98252.69;5095915;28;20341;-62
2023/09/19 12:02:46;;;;;;;;;;;;;;;25.15;33.79;98248.81;5082305;28;19913;-62
2023/09/19 12:05:12;;;;;;;;;;;;;;;24.95;33.18;98256.03;5075513;28;20339;-62
2023/09/19 12:07:45;;;;;;;;;;;;;;;24.68;32.50;98263.00;5075506;28;19916;-62
2023/09/19 12:10:12;;;;;;;;;;;;;;;24.88;35.38;98273.06;5061440;28;20446;-61
2023/09/19 12:12:37;;;;;;;;;;;;;;;24.58;32.93;98271.69;5075495;28;19912;-62
2023/09/19 12:15:03;;;;;;;;;;;;;;;24.60;34.19;98269.41;5075329;28;19922;-62
2023/09/19 12:17:39;;;;;;;;;;;;;;;24.81;33.41;98261.06;5095071;28;20003;-62
2023/09/19 12:20:13;;;;;;;;;;;;;;;24.56;34.33;98261.03;5095508;28;19919;-62
2023/09/19 12:22:43;;;;;;;;;;;;;;;24.17;31.09;98267.91;5095495;28;19912;-62
2023/09/19 12:25:10;;;;;;;;;;;;;;;24.35;31.27;98285.78;5077111;28;19916;-62
2023/09/19 12:27:43;;;;;;;;;;;;;;;24.45;32.28;98268.09;5082585;28;19920;-61
2023/09/19 12:30:09;;;;;;;;;;;;;;;24.43;31.77;98268.41;5075137;28;20393;-62
2023/09/19 12:32:36;;;;;;;;;;;;;;;24.43;31.73;98265.69;5075119;28;19920;-62
2023/09/19 12:35:07;;;;;;;;;;;;;;;24.35;30.51;98267.38;5074752;28;19917;-62
2023/09/19 12:37:35;;;;;;;;;;;;;;;24.80;31.10;98287.72;5075113;28;19920;-62
2023/09/19 12:40:18;;;;;;;;;;;;;;;25.02;30.22;98280.19;5056990;28;19919;-62
2023/09/19 12:42:46;;;;;;;;;;;;;;;25.57;31.04;98262.25;5074656;28;19944;-63
2023/09/19 12:45:13;;;;;;;;;;;;;;;26.02;30.90;98269.50;5074600;28;19958;-63
2023/09/19 12:47:40;;;;;;;;;;;;;;;26.56;31.02;98281.94;5074500;28;20453;-62
2023/09/19 12:50:06;;;;;;;;;;;;;;;26.87;27.87;98282.31;5074632;28;19928;-62
2023/09/19 12:52:36;;;;;;;;;;;;;;;26.81;27.53;98274.31;5074714;28;19979;-62
2023/09/19 12:55:02;;;;;;;;;;;;;;;26.99;27.37;98268.47;5077052;28;19916;-62